sensor_id;sensor_type;location;lat;lon;timestamp;pressure;altitude;pressure_sealevel;temperature;humidity
21728;BME280;11026;50.560;17.852;2023-08-07T00:00:33;98303.53;;;14.45;100.00
21728;BME280;11026;50.560;17.852;2023-08-07T00:03:01;98301.34;;;14.28;100.00
21728;BME280;11026;50.560;17.852;2023-08-07T00:05:31;98305.22;;;14.35;100.00
21728;BME280;11026;50.560;17.852;2023-08-07T00:07:58;98303.28;;;14.48;100.00
21728;BME280;11026;50.560;17.852;2023-08-07T00:10:26;98305.97;;;14.60;100.00
21728;BME280;11026;50.560;17.852;2023-08-07T00:12:55;98306.56;;;14.52;100.00
21728;BME280;11026;50.560;17.852;2023-08-07T00:15:28;98301.38;;;14.50;100.00
21728;BME280;11026;50.560;17.852;2023-08-07T00:17:56;98309.00;;;14.55;100.00
21728;BME280;11026;50.560;17.852;2023-08-07T00:20:24;98303.06;;;14.51;100.00
21728;BME280;11026;50.560;17.852;2023-08-07T00:22:59;98310.34;;;14.49;100.00
21728;BME280;11026;50.560;17.852;2023-08-07T00:25:27;98303.78;;;14.42;100.00
21728;BME280;11026;50.560;17.852;2023-08-07T00:27:55;98311.28;;;14.37;100.00
21728;BME280;11026;50.560;17.852;2023-08-07T00:30:23;98313.44;;;14.32;100.00
21728;BME280;11026;50.560;17.852;2023-08-07T00:32:51;98327.59;;;14.21;100.00
21728;BME280;11026;50.560;17.852;2023-08-07T00:35:18;98321.66;;;14.29;100.00
21728;BME280;11026;50.560;17.852;2023-08-07T00:37:46;98319.97;;;14.28;100.00
21728;BME280;11026;50.560;17.852;2023-08-07T00:40:13;98318.16;;;14.28;100.00
21728;BME280;11026;50.560;17.852;2023-08-07T00:42:47;98316.00;;;14.34;100.00
21728;BME280;11026;50.560;17.852;2023-08-07T00:45:15;98318.50;;;14.24;100.00
21728;BME280;11026;50.560;17.852;2023-08-07T00:47:45;98310.66;;;14.34;100.00
21728;BME280;11026;50.560;17.852;2023-08-07T00:50:12;98305.44;;;14.21;100.00
21728;BME280;11026;50.560;17.852;2023-08-07T00:52:41;98312.25;;;14.14;100.00
21728;BME280;11026;50.560;17.852;2023-08-07T00:55:15;98319.59;;;14.33;100.00
21728;BME280;11026;50.560;17.852;2023-08-07T00:57:42;98318.16;;;14.40;100.00
21728;BME280;11026;50.560;17.852;2023-08-07T01:00:11;98311.75;;;14.42;100.00
21728;BME280;11026;50.560;17.852;2023-08-07T01:02:41;98306.44;;;14.42;100.00
21728;BME280;11026;50.560;17.852;2023-08-07T01:05:21;98307.03;;;14.35;100.00
21728;BME280;11026;50.560;17.852;2023-08-07T01:07:53;98303.03;;;14.29;100.00
21728;BME280;11026;50.560;17.852;2023-08-07T01:13:28;98303.63;;;14.33;100.00
21728;BME280;11026;50.560;17.852;2023-08-07T01:16:15;98296.78;;;14.41;100.00
21728;BME280;11026;50.560;17.852;2023-08-07T01:18:46;98297.00;;;14.38;100.00
21728;BME280;11026;50.560;17.852;2023-08-07T01:21:26;98297.47;;;14.21;100.00
21728;BME280;11026;50.560;17.852;2023-08-07T01:23:54;98293.69;;;14.01;100.00
21728;BME280;11026;50.560;17.852;2023-08-07T01:26:22;98297.22;;;13.90;100.00
21728;BME280;11026;50.560;17.852;2023-08-07T01:29:12;98293.94;;;14.09;100.00
21728;BME280;11026;50.560;17.852;2023-08-07T01:31:42;98299.91;;;14.24;100.00
21728;BME280;11026;50.560;17.852;2023-08-07T01:34:13;98292.03;;;14.22;100.00
21728;BME280;11026;50.560;17.852;2023-08-07T01:36:48;98290.59;;;14.18;100.00
21728;BME280;11026;50.560;17.852;2023-08-07T01:39:18;98293.25;;;14.07;100.00
21728;BME280;11026;50.560;17.852;2023-08-07T01:41:48;98288.66;;;13.98;100.00
21728;BME280;11026;50.560;17.852;2023-08-07T01:44:16;98286.19;;;13.84;100.00
21728;BME280;11026;50.560;17.852;2023-08-07T01:46:43;98285.63;;;14.02;100.00
21728;BME280;11026;50.560;17.852;2023-08-07T01:49:11;98289.59;;;14.08;100.00
21728;BME280;11026;50.560;17.852;2023-08-07T01:51:38;98283.44;;;13.96;100.00
21728;BME280;11026;50.560;17.852;2023-08-07T01:54:05;98295.03;;;13.95;100.00
21728;BME280;11026;50.560;17.852;2023-08-07T01:56:34;98287.09;;;14.07;100.00
21728;BME280;11026;50.560;17.852;2023-08-07T01:59:01;98283.56;;;13.95;100.00
21728;BME280;11026;50.560;17.852;2023-08-07T02:01:29;98283.78;;;13.92;100.00
21728;BME280;11026;50.560;17.852;2023-08-07T02:03:56;98286.78;;;13.76;100.00
21728;BME280;11026;50.560;17.852;2023-08-07T02:06:29;98278.59;;;13.79;100.00
21728;BME280;11026;50.560;17.852;2023-08-07T02:08:57;98282.47;;;13.86;100.00
21728;BME280;11026;50.560;17.852;2023-08-07T02:11:26;98270.13;;;13.85;100.00
21728;BME280;11026;50.560;17.852;2023-08-07T02:13:53;98278.84;;;13.87;100.00
21728;BME280;11026;50.560;17.852;2023-08-07T02:16:21;98278.09;;;13.85;100.00
21728;BME280;11026;50.560;17.852;2023-08-07T02:18:48;98283.78;;;13.92;100.00
21728;BME280;11026;50.560;17.852;2023-08-07T02:21:16;98282.94;;;13.91;100.00
21728;BME280;11026;50.560;17.852;2023-08-07T02:23:43;98285.59;;;13.80;100.00
21728;BME280;11026;50.560;17.852;2023-08-07T02:26:11;98283.91;;;13.79;100.00
21728;BME280;11026;50.560;17.852;2023-08-07T02:28:39;98275.41;;;13.63;100.00
21728;BME280;11026;50.560;17.852;2023-08-07T02:31:08;98281.94;;;13.59;100.00
21728;BME280;11026;50.560;17.852;2023-08-07T02:33:41;98289.16;;;13.57;100.00
21728;BME280;11026;50.560;17.852;2023-08-07T02:36:08;98289.66;;;13.73;100.00
21728;BME280;11026;50.560;17.852;2023-08-07T02:38:36;98285.13;;;13.86;100.00
21728;BME280;11026;50.560;17.852;2023-08-07T02:41:03;98284.50;;;13.83;100.00
21728;BME280;11026;50.560;17.852;2023-08-07T02:43:31;98291.03;;;13.78;100.00
21728;BME280;11026;50.560;17.852;2023-08-07T02:46:01;98286.81;;;13.87;100.00
21728;BME280;11026;50.560;17.852;2023-08-07T02:48:28;98285.63;;;13.91;100.00
21728;BME280;11026;50.560;17.852;2023-08-07T02:50:56;98299.00;;;13.78;100.00
21728;BME280;11026;50.560;17.852;2023-08-07T02:53:23;98292.84;;;13.89;100.00
21728;BME280;11026;50.560;17.852;2023-08-07T02:55:52;98290.09;;;13.91;100.00
21728;BME280;11026;50.560;17.852;2023-08-07T02:58:19;98291.50;;;13.84;100.00
21728;BME280;11026;50.560;17.852;2023-08-07T03:00:47;98291.28;;;13.87;100.00
21728;BME280;11026;50.560;17.852;2023-08-07T03:03:16;98287.53;;;13.89;100.00
21728;BME280;11026;50.560;17.852;2023-08-07T03:05:49;98292.50;;;13.94;100.00
21728;BME280;11026;50.560;17.852;2023-08-07T03:08:18;98294.44;;;13.92;100.00
21728;BME280;11026;50.560;17.852;2023-08-07T03:10:56;98296.47;;;13.88;100.00
21728;BME280;11026;50.560;17.852;2023-08-07T03:13:25;98296.59;;;13.87;100.00
21728;BME280;11026;50.560;17.852;2023-08-07T03:16:01;98300.59;;;13.92;100.00
21728;BME280;11026;50.560;17.852;2023-08-07T03:18:29;98308.91;;;13.88;100.00
21728;BME280;11026;50.560;17.852;2023-08-07T03:20:59;98310.50;;;13.90;100.00
21728;BME280;11026;50.560;17.852;2023-08-07T03:23:27;98310.75;;;13.87;100.00
21728;BME280;11026;50.560;17.852;2023-08-07T03:26:03;98311.31;;;13.80;100.00
21728;BME280;11026;50.560;17.852;2023-08-07T03:28:44;98306.38;;;13.86;100.00
21728;BME280;11026;50.560;17.852;2023-08-07T03:31:15;98314.47;;;13.85;100.00
21728;BME280;11026;50.560;17.852;2023-08-07T03:33:43;98310.25;;;13.82;100.00
21728;BME280;11026;50.560;17.852;2023-08-07T03:36:11;98320.00;;;13.82;100.00
21728;BME280;11026;50.560;17.852;2023-08-07T03:38:38;98320.00;;;13.82;100.00
21728;BME280;11026;50.560;17.852;2023-08-07T03:41:06;98315.56;;;13.82;100.00
21728;BME280;11026;50.560;17.852;2023-08-07T03:43:33;98324.75;;;13.78;100.00
21728;BME280;11026;50.560;17.852;2023-08-07T03:46:02;98312.16;;;13.80;100.00
21728;BME280;11026;50.560;17.852;2023-08-07T03:48:30;98321.38;;;13.87;100.00
21728;BME280;11026;50.560;17.852;2023-08-07T03:51:05;98321.25;;;13.89;100.00
21728;BME280;11026;50.560;17.852;2023-08-07T03:53:37;98325.72;;;13.88;100.00
21728;BME280;11026;50.560;17.852;2023-08-07T03:56:04;98328.28;;;13.90;100.00
21728;BME280;11026;50.560;17.852;2023-08-07T03:58:33;98328.97;;;13.92;100.00
21728;BME280;11026;50.560;17.852;2023-08-07T04:01:00;98330.31;;;13.86;100.00
21728;BME280;11026;50.560;17.852;2023-08-07T04:03:30;98333.69;;;13.88;100.00
21728;BME280;11026;50.560;17.852;2023-08-07T04:05:57;98335.50;;;13.88;100.00
21728;BME280;11026;50.560;17.852;2023-08-07T04:08:27;98330.06;;;13.89;100.00
21728;BME280;11026;50.560;17.852;2023-08-07T04:11:10;98332.97;;;13.86;100.00
21728;BME280;11026;50.560;17.852;2023-08-07T04:13:38;98327.88;;;13.83;100.00
21728;BME280;11026;50.560;17.852;2023-08-07T04:16:07;98334.91;;;13.95;100.00
21728;BME280;11026;50.560;17.852;2023-08-07T04:18:35;98338.19;;;13.99;100.00
21728;BME280;11026;50.560;17.852;2023-08-07T04:21:02;98336.13;;;13.91;100.00
21728;BME280;11026;50.560;17.852;2023-08-07T04:23:34;98338.03;;;13.89;100.00
21728;BME280;11026;50.560;17.852;2023-08-07T04:26:03;98331.03;;;13.88;100.00
21728;BME280;11026;50.560;17.852;2023-08-07T04:28:30;98334.88;;;13.84;100.00
21728;BME280;11026;50.560;17.852;2023-08-07T04:31:00;98330.66;;;13.93;100.00
21728;BME280;11026;50.560;17.852;2023-08-07T04:33:28;98332.84;;;13.88;100.00
21728;BME280;11026;50.560;17.852;2023-08-07T04:35:56;98334.44;;;13.90;100.00
21728;BME280;11026;50.560;17.852;2023-08-07T04:38:24;98342.16;;;13.93;100.00
21728;BME280;11026;50.560;17.852;2023-08-07T04:40:51;98331.78;;;14.01;100.00
21728;BME280;11026;50.560;17.852;2023-08-07T04:43:19;98333.09;;;13.96;100.00
21728;BME280;11026;50.560;17.852;2023-08-07T04:45:48;98332.75;;;14.00;100.00
21728;BME280;11026;50.560;17.852;2023-08-07T04:48:16;98333.94;;;13.96;100.00
21728;BME280;11026;50.560;17.852;2023-08-07T04:50:45;98338.28;;;13.97;100.00
21728;BME280;11026;50.560;17.852;2023-08-07T04:53:13;98336.81;;;13.93;100.00
21728;BME280;11026;50.560;17.852;2023-08-07T04:55:43;98343.13;;;13.92;100.00
21728;BME280;11026;50.560;17.852;2023-08-07T04:58:11;98337.44;;;13.97;100.00
21728;BME280;11026;50.560;17.852;2023-08-07T05:00:40;98333.59;;;14.01;100.00
21728;BME280;11026;50.560;17.852;2023-08-07T05:03:08;98342.75;;;13.97;100.00
21728;BME280;11026;50.560;17.852;2023-08-07T05:05:36;98340.09;;;13.97;100.00
21728;BME280;11026;50.560;17.852;2023-08-07T05:08:05;98338.66;;;14.04;100.00
21728;BME280;11026;50.560;17.852;2023-08-07T05:10:33;98333.25;;;14.06;100.00
21728;BME280;11026;50.560;17.852;2023-08-07T05:13:00;98337.00;;;14.03;100.00
21728;BME280;11026;50.560;17.852;2023-08-07T05:15:28;98339.50;;;14.05;100.00
21728;BME280;11026;50.560;17.852;2023-08-07T05:17:57;98345.34;;;14.10;100.00
21728;BME280;11026;50.560;17.852;2023-08-07T05:20:26;98341.34;;;14.15;100.00
21728;BME280;11026;50.560;17.852;2023-08-07T05:22:53;98342.69;;;14.21;100.00
21728;BME280;11026;50.560;17.852;2023-08-07T05:25:21;98344.41;;;14.22;100.00
21728;BME280;11026;50.560;17.852;2023-08-07T05:27:50;98342.94;;;14.18;100.00
21728;BME280;11026;50.560;17.852;2023-08-07T05:30:17;98347.31;;;14.30;100.00
21728;BME280;11026;50.560;17.852;2023-08-07T05:32:45;98343.91;;;14.28;100.00
21728;BME280;11026;50.560;17.852;2023-08-07T05:35:12;98340.78;;;14.34;100.00
21728;BME280;11026;50.560;17.852;2023-08-07T05:37:40;98346.56;;;14.39;100.00
21728;BME280;11026;50.560;17.852;2023-08-07T05:40:08;98351.44;;;14.57;100.00
21728;BME280;11026;50.560;17.852;2023-08-07T05:43:00;98355.22;;;14.65;100.00
21728;BME280;11026;50.560;17.852;2023-08-07T05:45:28;98360.63;;;14.64;100.00
21728;BME280;11026;50.560;17.852;2023-08-07T05:47:56;98358.94;;;14.63;100.00
21728;BME280;11026;50.560;17.852;2023-08-07T05:50:24;98364.88;;;14.66;100.00
21728;BME280;11026;50.560;17.852;2023-08-07T05:52:51;98354.47;;;14.74;100.00
21728;BME280;11026;50.560;17.852;2023-08-07T05:55:19;98362.94;;;14.68;100.00
21728;BME280;11026;50.560;17.852;2023-08-07T05:57:46;98369.09;;;14.69;100.00
21728;BME280;11026;50.560;17.852;2023-08-07T06:00:20;98364.75;;;14.79;100.00
21728;BME280;11026;50.560;17.852;2023-08-07T06:02:48;98378.41;;;14.74;100.00
21728;BME280;11026;50.560;17.852;2023-08-07T06:05:15;98382.66;;;14.77;100.00
21728;BME280;11026;50.560;17.852;2023-08-07T06:07:43;98372.59;;;14.81;100.00
21728;BME280;11026;50.560;17.852;2023-08-07T06:10:11;98384.59;;;14.75;100.00
21728;BME280;11026;50.560;17.852;2023-08-07T06:12:39;98390.88;;;14.74;100.00
21728;BME280;11026;50.560;17.852;2023-08-07T06:15:09;98385.56;;;14.74;100.00
21728;BME280;11026;50.560;17.852;2023-08-07T06:17:38;98388.94;;;14.65;100.00
21728;BME280;11026;50.560;17.852;2023-08-07T06:20:09;98392.09;;;14.81;100.00
21728;BME280;11026;50.560;17.852;2023-08-07T06:22:38;98391.25;;;14.69;100.00
21728;BME280;11026;50.560;17.852;2023-08-07T06:25:06;98399.09;;;14.60;100.00
21728;BME280;11026;50.560;17.852;2023-08-07T06:27:40;98400.44;;;14.65;100.00
21728;BME280;11026;50.560;17.852;2023-08-07T06:30:13;98404.44;;;14.71;100.00
21728;BME280;11026;50.560;17.852;2023-08-07T06:32:42;98404.81;;;14.78;100.00
21728;BME280;11026;50.560;17.852;2023-08-07T06:35:09;98415.91;;;14.71;100.00
21728;BME280;11026;50.560;17.852;2023-08-07T06:37:38;98410.38;;;14.74;100.00
21728;BME280;11026;50.560;17.852;2023-08-07T06:40:06;98405.16;;;14.62;100.00
21728;BME280;11026;50.560;17.852;2023-08-07T06:42:33;98409.16;;;14.67;100.00
21728;BME280;11026;50.560;17.852;2023-08-07T06:45:01;98408.53;;;14.64;100.00
21728;BME280;11026;50.560;17.852;2023-08-07T06:47:28;98406.59;;;14.55;100.00
21728;BME280;11026;50.560;17.852;2023-08-07T06:49:56;98415.28;;;14.45;100.00
21728;BME280;11026;50.560;17.852;2023-08-07T06:52:23;98415.78;;;14.50;100.00
21728;BME280;11026;50.560;17.852;2023-08-07T06:54:51;98418.47;;;14.50;100.00
21728;BME280;11026;50.560;17.852;2023-08-07T06:57:19;98418.94;;;14.56;100.00
21728;BME280;11026;50.560;17.852;2023-08-07T06:59:46;98422.09;;;14.49;100.00
21728;BME280;11026;50.560;17.852;2023-08-07T07:02:14;98421.81;;;14.52;100.00
21728;BME280;11026;50.560;17.852;2023-08-07T07:04:41;98423.53;;;14.54;100.00
21728;BME280;11026;50.560;17.852;2023-08-07T07:07:09;98430.81;;;14.63;100.00
21728;BME280;11026;50.560;17.852;2023-08-07T07:09:36;98426.34;;;14.74;100.00
21728;BME280;11026;50.560;17.852;2023-08-07T07:12:10;98441.69;;;14.71;100.00
21728;BME280;11026;50.560;17.852;2023-08-07T07:14:39;98437.47;;;14.80;100.00
21728;BME280;11026;50.560;17.852;2023-08-07T07:17:07;98439.16;;;14.92;100.00
21728;BME280;11026;50.560;17.852;2023-08-07T07:19:34;98437.34;;;14.81;100.00
21728;BME280;11026;50.560;17.852;2023-08-07T07:22:03;98453.66;;;14.76;100.00
21728;BME280;11026;50.560;17.852;2023-08-07T07:24:31;98449.59;;;14.48;100.00
21728;BME280;11026;50.560;17.852;2023-08-07T07:26:59;98461.34;;;14.46;100.00
21728;BME280;11026;50.560;17.852;2023-08-07T07:29:32;98459.03;;;14.30;100.00
21728;BME280;11026;50.560;17.852;2023-08-07T07:31:59;98462.28;;;14.34;100.00
21728;BME280;11026;50.560;17.852;2023-08-07T07:34:27;98460.34;;;14.36;100.00
21728;BME280;11026;50.560;17.852;2023-08-07T07:36:54;98463.88;;;14.47;100.00
21728;BME280;11026;50.560;17.852;2023-08-07T07:39:22;98459.91;;;14.53;100.00
21728;BME280;11026;50.560;17.852;2023-08-07T07:41:49;98467.09;;;14.64;100.00
21728;BME280;11026;50.560;17.852;2023-08-07T07:44:17;98474.13;;;14.76;100.00
21728;BME280;11026;50.560;17.852;2023-08-07T07:46:44;98481.16;;;14.77;100.00
21728;BME280;11026;50.560;17.852;2023-08-07T07:49:15;98490.69;;;14.57;100.00
21728;BME280;11026;50.560;17.852;2023-08-07T07:51:42;98509.72;;;14.16;100.00
21728;BME280;11026;50.560;17.852;2023-08-07T07:54:11;98513.59;;;14.12;100.00
21728;BME280;11026;50.560;17.852;2023-08-07T07:56:43;98522.75;;;14.08;100.00
21728;BME280;11026;50.560;17.852;2023-08-07T07:59:12;98515.97;;;14.03;100.00
21728;BME280;11026;50.560;17.852;2023-08-07T08:01:40;98517.66;;;14.05;100.00
21728;BME280;11026;50.560;17.852;2023-08-07T08:04:07;98514.56;;;14.11;100.00
21728;BME280;11026;50.560;17.852;2023-08-07T08:06:35;98521.22;;;14.16;100.00
21728;BME280;11026;50.560;17.852;2023-08-07T08:09:02;98531.19;;;14.25;100.00
21728;BME280;11026;50.560;17.852;2023-08-07T08:11:31;98525.38;;;14.32;100.00
21728;BME280;11026;50.560;17.852;2023-08-07T08:13:59;98537.28;;;14.39;100.00
21728;BME280;11026;50.560;17.852;2023-08-07T08:16:26;98537.84;;;14.31;100.00
21728;BME280;11026;50.560;17.852;2023-08-07T08:18:54;98545.81;;;14.31;100.00
21728;BME280;11026;50.560;17.852;2023-08-07T08:21:21;98542.91;;;14.23;100.00
21728;BME280;11026;50.560;17.852;2023-08-07T08:23:49;98542.41;;;14.18;100.00
21728;BME280;11026;50.560;17.852;2023-08-07T08:26:16;98549.84;;;14.13;100.00
21728;BME280;11026;50.560;17.852;2023-08-07T08:28:44;98551.72;;;13.99;100.00
21728;BME280;11026;50.560;17.852;2023-08-07T08:31:11;98553.31;;;14.02;100.00
21728;BME280;11026;50.560;17.852;2023-08-07T08:33:40;98550.75;;;14.00;100.00
21728;BME280;11026;50.560;17.852;2023-08-07T08:36:07;98552.34;;;14.03;100.00
21728;BME280;11026;50.560;17.852;2023-08-07T08:38:36;98556.75;;;14.15;100.00
21728;BME280;11026;50.560;17.852;2023-08-07T08:41:05;98556.31;;;14.21;100.00
21728;BME280;11026;50.560;17.852;2023-08-07T08:43:39;98547.06;;;14.38;100.00
21728;BME280;11026;50.560;17.852;2023-08-07T08:46:08;98549.81;;;14.49;100.00
21728;BME280;11026;50.560;17.852;2023-08-07T08:48:50;98550.69;;;14.61;100.00
21728;BME280;11026;50.560;17.852;2023-08-07T08:51:20;98557.59;;;14.75;100.00
21728;BME280;11026;50.560;17.852;2023-08-07T08:53:50;98563.69;;;14.88;100.00
21728;BME280;11026;50.560;17.852;2023-08-07T08:56:20;98564.66;;;14.87;100.00
21728;BME280;11026;50.560;17.852;2023-08-07T08:58:50;98565.91;;;15.06;100.00
21728;BME280;11026;50.560;17.852;2023-08-07T09:01:20;98573.63;;;14.86;100.00
21728;BME280;11026;50.560;17.852;2023-08-07T09:03:53;98572.00;;;14.72;100.00
21728;BME280;11026;50.560;17.852;2023-08-07T09:06:22;98572.34;;;14.68;100.00
21728;BME280;11026;50.560;17.852;2023-08-07T09:08:52;98574.56;;;14.74;100.00
21728;BME280;11026;50.560;17.852;2023-08-07T09:11:20;98577.47;;;14.82;100.00
21728;BME280;11026;50.560;17.852;2023-08-07T09:13:48;98581.56;;;14.75;100.00
21728;BME280;11026;50.560;17.852;2023-08-07T09:16:17;98579.97;;;14.72;100.00
21728;BME280;11026;50.560;17.852;2023-08-07T09:18:44;98593.84;;;14.54;100.00
21728;BME280;11026;50.560;17.852;2023-08-07T09:21:24;98591.47;;;14.62;100.00
21728;BME280;11026;50.560;17.852;2023-08-07T09:23:52;98587.56;;;14.55;100.00
21728;BME280;11026;50.560;17.852;2023-08-07T09:26:23;98595.06;;;14.61;100.00
21728;BME280;11026;50.560;17.852;2023-08-07T09:28:52;98593.28;;;14.61;100.00
21728;BME280;11026;50.560;17.852;2023-08-07T09:31:23;98590.03;;;14.80;100.00
21728;BME280;11026;50.560;17.852;2023-08-07T09:33:53;98595.63;;;14.77;100.00
21728;BME280;11026;50.560;17.852;2023-08-07T09:36:20;98601.00;;;14.64;100.00
21728;BME280;11026;50.560;17.852;2023-08-07T09:38:50;98597.97;;;14.58;100.00
21728;BME280;11026;50.560;17.852;2023-08-07T09:41:18;98596.78;;;14.62;100.00
21728;BME280;11026;50.560;17.852;2023-08-07T09:43:48;98605.53;;;14.75;100.00
21728;BME280;11026;50.560;17.852;2023-08-07T09:46:21;98598.03;;;14.80;100.00
21728;BME280;11026;50.560;17.852;2023-08-07T09:48:57;98609.16;;;14.74;100.00
21728;BME280;11026;50.560;17.852;2023-08-07T09:51:25;98610.53;;;14.56;100.00
21728;BME280;11026;50.560;17.852;2023-08-07T09:53:52;98606.72;;;14.71;100.00
21728;BME280;11026;50.560;17.852;2023-08-07T09:56:22;98602.53;;;14.91;100.00
21728;BME280;11026;50.560;17.852;2023-08-07T09:58:52;98615.81;;;14.80;100.00
21728;BME280;11026;50.560;17.852;2023-08-07T10:01:22;98609.06;;;14.87;100.00
21728;BME280;11026;50.560;17.852;2023-08-07T10:03:50;98615.13;;;14.89;100.00
21728;BME280;11026;50.560;17.852;2023-08-07T10:06:18;98617.56;;;15.03;100.00
21728;BME280;11026;50.560;17.852;2023-08-07T10:08:46;98620.84;;;15.07;100.00
21728;BME280;11026;50.560;17.852;2023-08-07T10:11:14;98622.22;;;15.23;100.00
21728;BME280;11026;50.560;17.852;2023-08-07T10:13:45;98631.56;;;15.29;100.00
21728;BME280;11026;50.560;17.852;2023-08-07T10:16:13;98625.03;;;15.44;100.00
21728;BME280;11026;50.560;17.852;2023-08-07T10:18:42;98625.03;;;15.44;100.00
21728;BME280;11026;50.560;17.852;2023-08-07T10:21:11;98627.34;;;15.49;100.00
21728;BME280;11026;50.560;17.852;2023-08-07T10:23:39;98620.19;;;15.49;100.00
21728;BME280;11026;50.560;17.852;2023-08-07T10:26:09;98611.22;;;15.62;100.00
21728;BME280;11026;50.560;17.852;2023-08-07T10:28:39;98617.44;;;15.73;100.00
21728;BME280;11026;50.560;17.852;2023-08-07T10:31:08;98618.50;;;15.48;100.00
21728;BME280;11026;50.560;17.852;2023-08-07T10:33:38;98622.50;;;15.54;100.00
21728;BME280;11026;50.560;17.852;2023-08-07T10:36:10;98620.47;;;15.69;100.00
21728;BME280;11026;50.560;17.852;2023-08-07T10:38:38;98622.84;;;15.49;100.00
21728;BME280;11026;50.560;17.852;2023-08-07T10:41:14;98627.69;;;15.33;100.00
21728;BME280;11026;50.560;17.852;2023-08-07T10:43:46;98617.53;;;15.61;100.00
21728;BME280;11026;50.560;17.852;2023-08-07T10:46:16;98617.25;;;15.64;100.00
21728;BME280;11026;50.560;17.852;2023-08-07T10:48:58;98614.91;;;15.72;100.00
21728;BME280;11026;50.560;17.852;2023-08-07T10:51:30;98610.38;;;15.84;100.00
21728;BME280;11026;50.560;17.852;2023-08-07T10:54:01;98616.81;;;15.92;100.00
21728;BME280;11026;50.560;17.852;2023-08-07T10:56:34;98612.94;;;15.96;100.00
21728;BME280;11026;50.560;17.852;2023-08-07T10:59:09;98609.97;;;16.11;100.00
21728;BME280;11026;50.560;17.852;2023-08-07T11:04:13;98624.41;;;16.19;100.00
21728;BME280;11026;50.560;17.852;2023-08-07T11:06:42;98629.38;;;16.24;100.00
21728;BME280;11026;50.560;17.852;2023-08-07T11:09:11;98629.38;;;16.13;100.00
21728;BME280;11026;50.560;17.852;2023-08-07T11:11:40;98624.72;;;16.37;100.00
21728;BME280;11026;50.560;17.852;2023-08-07T11:14:09;98623.72;;;16.38;100.00
21728;BME280;11026;50.560;17.852;2023-08-07T11:16:37;98624.75;;;16.58;100.00
21728;BME280;11026;50.560;17.852;2023-08-07T11:19:06;98627.84;;;16.42;100.00
21728;BME280;11026;50.560;17.852;2023-08-07T11:21:34;98625.09;;;16.65;100.00
21728;BME280;11026;50.560;17.852;2023-08-07T11:24:03;98620.94;;;16.72;100.00
21728;BME280;11026;50.560;17.852;2023-08-07T11:26:32;98619.16;;;16.93;100.00
21728;BME280;11026;50.560;17.852;2023-08-07T11:29:06;98626.59;;;17.32;100.00
21728;BME280;11026;50.560;17.852;2023-08-07T11:31:34;98624.84;;;17.52;100.00
21728;BME280;11026;50.560;17.852;2023-08-07T11:34:07;98618.59;;;17.62;100.00
21728;BME280;11026;50.560;17.852;2023-08-07T11:36:41;98621.44;;;17.70;100.00
21728;BME280;11026;50.560;17.852;2023-08-07T11:39:09;98623.69;;;18.06;100.00
21728;BME280;11026;50.560;17.852;2023-08-07T11:41:36;98619.53;;;18.42;100.00
21728;BME280;11026;50.560;17.852;2023-08-07T11:44:07;98619.81;;;18.58;100.00
21728;BME280;11026;50.560;17.852;2023-08-07T11:46:35;98619.56;;;18.71;100.00
21728;BME280;11026;50.560;17.852;2023-08-07T11:49:04;98618.31;;;18.85;100.00
21728;BME280;11026;50.560;17.852;2023-08-07T11:51:32;98623.09;;;18.81;100.00
21728;BME280;11026;50.560;17.852;2023-08-07T11:54:01;98628.03;;;18.86;100.00
21728;BME280;11026;50.560;17.852;2023-08-07T11:56:29;98626.59;;;19.11;100.00
21728;BME280;11026;50.560;17.852;2023-08-07T11:58:57;98632.19;;;19.37;95.12
21728;BME280;11026;50.560;17.852;2023-08-07T12:01:26;98636.25;;;19.51;78.44
21728;BME280;11026;50.560;17.852;2023-08-07T12:04:08;98634.75;;;19.29;77.29
21728;BME280;11026;50.560;17.852;2023-08-07T12:06:37;98644.66;;;19.28;73.82
21728;BME280;11026;50.560;17.852;2023-08-07T12:09:11;98648.88;;;19.21;74.19
21728;BME280;11026;50.560;17.852;2023-08-07T12:11:40;98645.63;;;19.08;77.60
21728;BME280;11026;50.560;17.852;2023-08-07T12:14:13;98646.88;;;19.23;77.31
21728;BME280;11026;50.560;17.852;2023-08-07T12:16:44;98645.31;;;19.30;79.39
21728;BME280;11026;50.560;17.852;2023-08-07T12:19:15;98645.28;;;19.97;74.66
21728;BME280;11026;50.560;17.852;2023-08-07T12:21:43;98644.84;;;20.47;72.75
21728;BME280;11026;50.560;17.852;2023-08-07T12:24:14;98646.44;;;21.03;72.46
21728;BME280;11026;50.560;17.852;2023-08-07T12:26:41;98653.25;;;20.61;71.26
21728;BME280;11026;50.560;17.852;2023-08-07T12:29:09;98662.41;;;20.41;69.31
21728;BME280;11026;50.560;17.852;2023-08-07T12:31:36;98663.56;;;20.11;70.38
21728;BME280;11026;50.560;17.852;2023-08-07T12:34:06;98648.34;;;20.11;71.14
21728;BME280;11026;50.560;17.852;2023-08-07T12:36:38;98655.97;;;20.34;71.00
21728;BME280;11026;50.560;17.852;2023-08-07T12:39:06;98671.38;;;20.32;68.42
21728;BME280;11026;50.560;17.852;2023-08-07T12:41:35;98659.19;;;20.83;70.71
21728;BME280;11026;50.560;17.852;2023-08-07T12:44:05;98669.22;;;21.60;66.67
21728;BME280;11026;50.560;17.852;2023-08-07T12:46:33;98674.19;;;21.47;64.23
21728;BME280;11026;50.560;17.852;2023-08-07T12:49:05;98674.91;;;21.57;63.65
21728;BME280;11026;50.560;17.852;2023-08-07T12:51:34;98667.25;;;21.63;63.53
21728;BME280;11026;50.560;17.852;2023-08-07T12:54:01;98668.13;;;21.27;59.48
21728;BME280;11026;50.560;17.852;2023-08-07T12:56:29;98665.44;;;21.27;62.22